Sovereign — 9HUE9 — position and weather

sailwx.info

Track history (hours):
 
Tides and Currents Weather Stations Pressure Air Temp Water Temp Dewpoint Dewpoint Depression Visibility Wind Speed Wind Dir Waves Ship Positions

Sovereign

Last reported at 2018-Feb-24 11:58 UTC. Time now 2018-Feb-24 12:20 UTC.
Position S 23°57' W 046°19'.

Length 269 m; draft 7.8 m.

Type: Passenger vessel. MMSI: 249539000.

Date/timePositionNaut miles runAvg speedWind from/ knotsBaromVisibWave heightAir tempDewpointWater temp
2018-Feb-24 11:58S 23°57' W 046°19'0 0.0
2018-Feb-24 11:28S 23°57' W 046°19'1 1.7
2018-Feb-24 11:00S 23°58' W 046°18'3 6.5
2018-Feb-24 10:30S 24°00' W 046°20'  
2018-Feb-22 02:28S 23°22' W 043°42'4 9.3
2018-Feb-22 02:00S 23°20' W 043°38'5 9.1
2018-Feb-22 01:28S 23°17' W 043°33'4 8.9
2018-Feb-22 00:58S 23°15' W 043°29'5 8.6
2018-Feb-22 00:23S 23°12' W 043°25'4 7.9
2018-Feb-21 23:56S 23°10' W 043°22'3 8.0
2018-Feb-21 23:30S 23°08' W 043°19'5 9.5
2018-Feb-21 22:59S 23°05' W 043°14'4 9.3
2018-Feb-21 22:30S 23°02' W 043°10'4 8.2
2018-Feb-21 22:00S 22°58' W 043°09'4 8.7
2018-Feb-21 21:30S 22°54' W 043°09'2 3.5
2018-Feb-21 20:57S 22°54' W 043°11'0 0.0
2018-Feb-21 20:30S 22°54' W 043°11'0 0.0
2018-Feb-21 20:00S 22°54' W 043°11'0 0.0
2018-Feb-21 19:30S 22°54' W 043°11'0 0.0
2018-Feb-21 19:00S 22°54' W 043°11'0 0.0
2018-Feb-21 18:30S 22°54' W 043°11'0 0.0
2018-Feb-21 18:00S 22°54' W 043°11'0 0.0
2018-Feb-21 17:30S 22°54' W 043°11'0 0.0
2018-Feb-21 16:57S 22°54' W 043°11'0 0.0
2018-Feb-21 16:30S 22°54' W 043°11'0 0.0
2018-Feb-21 16:00S 22°54' W 043°11'0 0.0
2018-Feb-21 15:30S 22°54' W 043°11'0 0.0
2018-Feb-21 15:00S 22°54' W 043°11'0 0.0
2018-Feb-21 14:30S 22°54' W 043°11'0 0.0
2018-Feb-21 14:00S 22°54' W 043°11'0 0.0
2018-Feb-21 13:27S 22°54' W 043°11'0 0.0
2018-Feb-21 13:00S 22°54' W 043°11'0 0.0
2018-Feb-21 12:30S 22°54' W 043°11'0 0.0
2018-Feb-21 11:57S 22°54' W 043°11'0 0.3
2018-Feb-21 11:31S 22°54' W 043°11'3 5.6
2018-Feb-21 11:00S 22°55' W 043°09'510.4
2018-Feb-21 10:31S 23°00' W 043°09'714.3
2018-Feb-21 10:00S 23°07' W 043°11'612.4
2018-Feb-21 09:30S 23°12' W 043°15'714.6
2018-Feb-21 09:01S 23°16' W 043°22'715.0
2018-Feb-21 08:31S 23°18' W 043°30'714.7
2018-Feb-21 08:00S 23°21' W 043°37'714.2
2018-Feb-21 07:30S 23°24' W 043°44'714.4
2018-Feb-21 06:59S 23°27' W 043°51'814.7
2018-Feb-21 06:29S 23°31' W 043°59'12514.3
2018-Feb-20 21:47S 24°04' W 046°10'913.8
2018-Feb-20 21:08S 24°02' W 046°20'210.6
2018-Feb-20 20:55S 23°60' W 046°20'3 6.3
2018-Feb-20 20:30S 23°58' W 046°18'1 1.9
2018-Feb-20 19:55S 23°57' W 046°19'0 0.0
2018-Feb-20 19:25S 23°57' W 046°19'0 0.0
2018-Feb-20 18:58S 23°57' W 046°19'0 0.0
2018-Feb-20 18:25S 23°57' W 046°19'0 0.0
2018-Feb-20 17:55S 23°57' W 046°19'0 0.0
2018-Feb-20 17:28S 23°57' W 046°19'0 0.0
2018-Feb-20 16:55S 23°57' W 046°19'0 0.0
2018-Feb-20 16:25S 23°57' W 046°19'0 0.0
2018-Feb-20 15:55S 23°57' W 046°19'0 0.0
2018-Feb-20 15:25S 23°57' W 046°19'0 0.0
2018-Feb-20 14:52S 23°57' W 046°19'0 0.0
2018-Feb-20 14:19S 23°57' W 046°19'0 0.0
2018-Feb-20 13:58S 23°57' W 046°19'0 0.0
2018-Feb-20 13:28S 23°57' W 046°19'0 0.0
2018-Feb-20 12:55S 23°57' W 046°19'0 0.0
2018-Feb-20 12:22S 23°57' W 046°19'0 0.0
2018-Feb-20 11:46S 23°57' W 046°19'0 0.0
2018-Feb-20 11:28S 23°57' W 046°19'0 0.0
2018-Feb-20 10:54S 23°57' W 046°19'1 1.8
2018-Feb-20 10:30S 23°58' W 046°18'2 3.9
2018-Feb-20 10:00S 23°60' W 046°18'3 6.8
2018-Feb-20 09:30S 24°03' W 046°20'0 0.5
2018-Feb-20 09:00S 24°03' W 046°20'18 8.0
2018-Feb-20 06:42S 24°10' W 046°01'120 7.3
2018-Feb-19 14:20S 23°51' W 043°51'610.2
2018-Feb-19 13:43S 23°49' W 043°45'310.5
2018-Feb-19 13:29S 23°48' W 043°42'510.6
2018-Feb-19 12:59S 23°47' W 043°37'510.5
2018-Feb-19 12:30S 23°45' W 043°32'510.4
2018-Feb-19 12:00S 23°43' W 043°26'610.4
2018-Feb-19 11:28S 23°42' W 043°20'510.3
2018-Feb-19 11:00S 23°40' W 043°16'510.3
2018-Feb-19 10:30S 23°39' W 043°10'510.3
2018-Feb-19 09:59S 23°37' W 043°05'610.3
2018-Feb-19 09:25S 23°35' W 042°59'1110.2
2018-Feb-19 08:18S 23°32' W 042°47'410.2
2018-Feb-19 07:55S 23°30' W 042°43'910.0
2018-Feb-19 07:03S 23°28' W 042°34'110.0
2018-Feb-19 06:55S 23°27' W 042°32'7 9.8
2018-Feb-19 06:12S 23°25' W 042°25'4 9.7
2018-Feb-19 05:46S 23°24' W 042°21'8 0.3
2018-Feb-18 03:27S 23°17' W 042°25'7 7.3
2018-Feb-18 02:29S 23°17' W 042°32'4 7.2
2018-Feb-18 01:59S 23°18' W 042°36'3 7.1
2018-Feb-18 01:30S 23°18' W 042°40'12 7.5
2018-Feb-17 23:51S 23°11' W 042°51'3 7.7
2018-Feb-17 23:30S 23°09' W 042°54'4 7.9
2018-Feb-17 23:00S 23°07' W 042°57'4 7.7
2018-Feb-17 22:28S 23°05' W 043°01'4 7.8
2018-Feb-17 21:59S 23°02' W 043°03'3 7.4
2018-Feb-17 21:30S 22°60' W 043°06'4 7.9
2018-Feb-17 21:00S 22°56' W 043°08'4 7.2
2018-Feb-17 20:30S 22°53' W 043°11'0 0.6
2018-Feb-17 20:00S 22°54' W 043°11'0 0.0
2018-Feb-17 19:30S 22°54' W 043°11'0 0.0
2018-Feb-17 19:00S 22°54' W 043°11'0 0.0
2018-Feb-17 18:27S 22°54' W 043°11'0 0.0
2018-Feb-17 18:00S 22°54' W 043°11'0 0.0
2018-Feb-17 17:30S 22°54' W 043°11'0 0.0
2018-Feb-17 17:00S 22°54' W 043°11'0 0.0
2018-Feb-17 16:30S 22°54' W 043°11'0 0.0
2018-Feb-17 16:00S 22°54' W 043°11'0 0.0
2018-Feb-17 15:30S 22°54' W 043°11'0 0.0
2018-Feb-17 15:00S 22°54' W 043°11'0 0.0
2018-Feb-17 14:30S 22°54' W 043°11'0 0.0
2018-Feb-17 14:00S 22°54' W 043°11'0 0.0
2018-Feb-17 13:30S 22°54' W 043°11'0 0.0
2018-Feb-17 13:00S 22°54' W 043°11'0 0.0
2018-Feb-17 12:30S 22°54' W 043°11'0 0.0
2018-Feb-17 12:00S 22°54' W 043°11'0 0.0
2018-Feb-17 11:30S 22°54' W 043°11'0 0.0
2018-Feb-17 11:00S 22°54' W 043°11'0 0.4
2018-Feb-17 10:30S 22°54' W 043°11'3 5.5
2018-Feb-17 10:00S 22°55' W 043°09'5 9.6
2018-Feb-17 09:31S 22°60' W 043°09'815.8
2018-Feb-17 09:00S 23°07' W 043°11'611.7
2018-Feb-17 08:30S 23°12' W 043°16'713.4
2018-Feb-17 08:00S 23°15' W 043°22'612.9
2018-Feb-17 07:30S 23°18' W 043°28'612.3
2018-Feb-17 07:00S 23°20' W 043°34'612.5
2018-Feb-17 06:30S 23°23' W 043°41'712.9
2018-Feb-17 05:58S 23°26' W 043°47'13913.8
2018-Feb-16 19:51S 24°04' W 046°14'615.4
2018-Feb-16 19:29S 24°02' W 046°20'3 7.1
2018-Feb-16 19:00S 23°60' W 046°18'2 4.3
2018-Feb-16 18:26S 23°57' W 046°19'0 0.0
2018-Feb-16 17:56S 23°57' W 046°19'0 0.0
2018-Feb-16 17:29S 23°57' W 046°19'0 0.0
2018-Feb-16 16:59S 23°57' W 046°19'0 0.0
2018-Feb-16 16:23S 23°57' W 046°19'0 0.0
2018-Feb-16 15:56S 23°57' W 046°19'0 0.0
2018-Feb-16 15:29S 23°57' W 046°19'0 0.0
2018-Feb-16 14:59S 23°57' W 046°19'0 0.0
2018-Feb-16 14:29S 23°57' W 046°19'0 0.0
2018-Feb-16 13:56S 23°57' W 046°19'0 0.0
2018-Feb-16 13:20S 23°57' W 046°19'0 0.0
2018-Feb-16 12:59S 23°57' W 046°19'0 0.0
2018-Feb-16 12:26S 23°57' W 046°19'0 0.0
2018-Feb-16 11:59S 23°57' W 046°19'0 0.0
2018-Feb-16 11:26S 23°57' W 046°19'0 0.0
2018-Feb-16 10:56S 23°57' W 046°19'0 0.0
2018-Feb-16 10:29S 23°57' W 046°19'0 0.0
2018-Feb-16 09:50S 23°57' W 046°19'0 0.0
2018-Feb-16 09:28S 23°57' W 046°19'1 1.6
2018-Feb-16 09:00S 23°58' W 046°18'2 3.3
2018-Feb-16 08:30S 23°59' W 046°18'4 7.3
2018-Feb-16 08:00S 24°02' W 046°20'915.6
2018-Feb-16 07:27S 24°06' W 046°12'  
Track history (hours):
 
Tides and Currents Weather Stations Pressure Air Temp Water Temp Dewpoint Dewpoint Depression Visibility Wind Speed Wind Dir Waves Ship Positions

Sovereign

Last reported at 2018-Feb-24 11:58 UTC. Time now 2018-Feb-24 12:20 UTC.
Position S 23°57' W 046°19'.

Length 269 m; draft 7.8 m.

Type: Passenger vessel. MMSI: 249539000.

Date/timePositionNaut miles runAvg speedWind from/ knotsBaromVisibWave heightAir tempDewpointWater temp
2018-Feb-24 11:58S 23°57' W 046°19'0 0.0
2018-Feb-24 11:28S 23°57' W 046°19'1 1.7
2018-Feb-24 11:00S 23°58' W 046°18'3 6.5
2018-Feb-24 10:30S 24°00' W 046°20'  
2018-Feb-22 02:28S 23°22' W 043°42'4 9.3
2018-Feb-22 02:00S 23°20' W 043°38'5 9.1
2018-Feb-22 01:28S 23°17' W 043°33'4 8.9
2018-Feb-22 00:58S 23°15' W 043°29'5 8.6
2018-Feb-22 00:23S 23°12' W 043°25'4 7.9
2018-Feb-21 23:56S 23°10' W 043°22'3 8.0
2018-Feb-21 23:30S 23°08' W 043°19'5 9.5
2018-Feb-21 22:59S 23°05' W 043°14'4 9.3
2018-Feb-21 22:30S 23°02' W 043°10'4 8.2
2018-Feb-21 22:00S 22°58' W 043°09'4 8.7
2018-Feb-21 21:30S 22°54' W 043°09'2 3.5
2018-Feb-21 20:57S 22°54' W 043°11'0 0.0
2018-Feb-21 20:30S 22°54' W 043°11'0 0.0
2018-Feb-21 20:00S 22°54' W 043°11'0 0.0
2018-Feb-21 19:30S 22°54' W 043°11'0 0.0
2018-Feb-21 19:00S 22°54' W 043°11'0 0.0
2018-Feb-21 18:30S 22°54' W 043°11'0 0.0
2018-Feb-21 18:00S 22°54' W 043°11'0 0.0
2018-Feb-21 17:30S 22°54' W 043°11'0 0.0
2018-Feb-21 16:57S 22°54' W 043°11'0 0.0
2018-Feb-21 16:30S 22°54' W 043°11'0 0.0
2018-Feb-21 16:00S 22°54' W 043°11'0 0.0
2018-Feb-21 15:30S 22°54' W 043°11'0 0.0
2018-Feb-21 15:00S 22°54' W 043°11'0 0.0
2018-Feb-21 14:30S 22°54' W 043°11'0 0.0
2018-Feb-21 14:00S 22°54' W 043°11'0 0.0
2018-Feb-21 13:27S 22°54' W 043°11'0 0.0
2018-Feb-21 13:00S 22°54' W 043°11'0 0.0
2018-Feb-21 12:30S 22°54' W 043°11'0 0.0
2018-Feb-21 11:57S 22°54' W 043°11'0 0.3
2018-Feb-21 11:31S 22°54' W 043°11'3 5.6
2018-Feb-21 11:00S 22°55' W 043°09'510.4
2018-Feb-21 10:31S 23°00' W 043°09'714.3
2018-Feb-21 10:00S 23°07' W 043°11'612.4
2018-Feb-21 09:30S 23°12' W 043°15'714.6
2018-Feb-21 09:01S 23°16' W 043°22'715.0
2018-Feb-21 08:31S 23°18' W 043°30'714.7
2018-Feb-21 08:00S 23°21' W 043°37'714.2
2018-Feb-21 07:30S 23°24' W 043°44'714.4
2018-Feb-21 06:59S 23°27' W 043°51'814.7
2018-Feb-21 06:29S 23°31' W 043°59'12514.3
2018-Feb-20 21:47S 24°04' W 046°10'913.8
2018-Feb-20 21:08S 24°02' W 046°20'210.6
2018-Feb-20 20:55S 23°60' W 046°20'3 6.3
2018-Feb-20 20:30S 23°58' W 046°18'1 1.9
2018-Feb-20 19:55S 23°57' W 046°19'0 0.0
2018-Feb-20 19:25S 23°57' W 046°19'0 0.0
2018-Feb-20 18:58S 23°57' W 046°19'0 0.0
2018-Feb-20 18:25S 23°57' W 046°19'0 0.0
2018-Feb-20 17:55S 23°57' W 046°19'0 0.0
2018-Feb-20 17:28S 23°57' W 046°19'0 0.0
2018-Feb-20 16:55S 23°57' W 046°19'0 0.0
2018-Feb-20 16:25S 23°57' W 046°19'0 0.0
2018-Feb-20 15:55S 23°57' W 046°19'0 0.0
2018-Feb-20 15:25S 23°57' W 046°19'0 0.0
2018-Feb-20 14:52S 23°57' W 046°19'0 0.0
2018-Feb-20 14:19S 23°57' W 046°19'0 0.0
2018-Feb-20 13:58S 23°57' W 046°19'0 0.0
2018-Feb-20 13:28S 23°57' W 046°19'0 0.0
2018-Feb-20 12:55S 23°57' W 046°19'0 0.0
2018-Feb-20 12:22S 23°57' W 046°19'0 0.0
2018-Feb-20 11:46S 23°57' W 046°19'0 0.0
2018-Feb-20 11:28S 23°57' W 046°19'0 0.0
2018-Feb-20 10:54S 23°57' W 046°19'1 1.8
2018-Feb-20 10:30S 23°58' W 046°18'2 3.9
2018-Feb-20 10:00S 23°60' W 046°18'3 6.8
2018-Feb-20 09:30S 24°03' W 046°20'0 0.5
2018-Feb-20 09:00S 24°03' W 046°20'18 8.0
2018-Feb-20 06:42S 24°10' W 046°01'120 7.3
2018-Feb-19 14:20S 23°51' W 043°51'610.2
2018-Feb-19 13:43S 23°49' W 043°45'310.5
2018-Feb-19 13:29S 23°48' W 043°42'510.6
2018-Feb-19 12:59S 23°47' W 043°37'510.5
2018-Feb-19 12:30S 23°45' W 043°32'510.4
2018-Feb-19 12:00S 23°43' W 043°26'610.4
2018-Feb-19 11:28S 23°42' W 043°20'510.3
2018-Feb-19 11:00S 23°40' W 043°16'510.3
2018-Feb-19 10:30S 23°39' W 043°10'510.3
2018-Feb-19 09:59S 23°37' W 043°05'610.3
2018-Feb-19 09:25S 23°35' W 042°59'1110.2
2018-Feb-19 08:18S 23°32' W 042°47'410.2
2018-Feb-19 07:55S 23°30' W 042°43'910.0
2018-Feb-19 07:03S 23°28' W 042°34'110.0
2018-Feb-19 06:55S 23°27' W 042°32'7 9.8
2018-Feb-19 06:12S 23°25' W 042°25'4 9.7
2018-Feb-19 05:46S 23°24' W 042°21'8 0.3
2018-Feb-18 03:27S 23°17' W 042°25'7 7.3
2018-Feb-18 02:29S 23°17' W 042°32'4 7.2
2018-Feb-18 01:59S 23°18' W 042°36'3 7.1
2018-Feb-18 01:30S 23°18' W 042°40'12 7.5
2018-Feb-17 23:51S 23°11' W 042°51'3 7.7
2018-Feb-17 23:30S 23°09' W 042°54'4 7.9
2018-Feb-17 23:00S 23°07' W 042°57'4 7.7
2018-Feb-17 22:28S 23°05' W 043°01'4 7.8
2018-Feb-17 21:59S 23°02' W 043°03'3 7.4
2018-Feb-17 21:30S 22°60' W 043°06'4 7.9
2018-Feb-17 21:00S 22°56' W 043°08'4 7.2
2018-Feb-17 20:30S 22°53' W 043°11'0 0.6
2018-Feb-17 20:00S 22°54' W 043°11'0 0.0
2018-Feb-17 19:30S 22°54' W 043°11'0 0.0
2018-Feb-17 19:00S 22°54' W 043°11'0 0.0
2018-Feb-17 18:27S 22°54' W 043°11'0 0.0
2018-Feb-17 18:00S 22°54' W 043°11'0 0.0
2018-Feb-17 17:30S 22°54' W 043°11'0 0.0
2018-Feb-17 17:00S 22°54' W 043°11'0 0.0
2018-Feb-17 16:30S 22°54' W 043°11'0 0.0
2018-Feb-17 16:00S 22°54' W 043°11'0 0.0
2018-Feb-17 15:30S 22°54' W 043°11'0 0.0
2018-Feb-17 15:00S 22°54' W 043°11'0 0.0
2018-Feb-17 14:30S 22°54' W 043°11'0 0.0
2018-Feb-17 14:00S 22°54' W 043°11'0 0.0
2018-Feb-17 13:30S 22°54' W 043°11'0 0.0
2018-Feb-17 13:00S 22°54' W 043°11'0 0.0
2018-Feb-17 12:30S 22°54' W 043°11'0 0.0
2018-Feb-17 12:00S 22°54' W 043°11'0 0.0
2018-Feb-17 11:30S 22°54' W 043°11'0 0.0
2018-Feb-17 11:00S 22°54' W 043°11'0 0.4
2018-Feb-17 10:30S 22°54' W 043°11'3 5.5
2018-Feb-17 10:00S 22°55' W 043°09'5 9.6
2018-Feb-17 09:31S 22°60' W 043°09'815.8
2018-Feb-17 09:00S 23°07' W 043°11'611.7
2018-Feb-17 08:30S 23°12' W 043°16'713.4
2018-Feb-17 08:00S 23°15' W 043°22'612.9
2018-Feb-17 07:30S 23°18' W 043°28'612.3
2018-Feb-17 07:00S 23°20' W 043°34'612.5
2018-Feb-17 06:30S 23°23' W 043°41'712.9
2018-Feb-17 05:58S 23°26' W 043°47'13913.8
2018-Feb-16 19:51S 24°04' W 046°14'615.4
2018-Feb-16 19:29S 24°02' W 046°20'3 7.1
2018-Feb-16 19:00S 23°60' W 046°18'2 4.3
2018-Feb-16 18:26S 23°57' W 046°19'0 0.0
2018-Feb-16 17:56S 23°57' W 046°19'0 0.0
2018-Feb-16 17:29S 23°57' W 046°19'0 0.0
2018-Feb-16 16:59S 23°57' W 046°19'0 0.0
2018-Feb-16 16:23S 23°57' W 046°19'0 0.0
2018-Feb-16 15:56S 23°57' W 046°19'0 0.0
2018-Feb-16 15:29S 23°57' W 046°19'0 0.0
2018-Feb-16 14:59S 23°57' W 046°19'0 0.0
2018-Feb-16 14:29S 23°57' W 046°19'0 0.0
2018-Feb-16 13:56S 23°57' W 046°19'0 0.0
2018-Feb-16 13:20S 23°57' W 046°19'0 0.0
2018-Feb-16 12:59S 23°57' W 046°19'0 0.0
2018-Feb-16 12:26S 23°57' W 046°19'0 0.0
2018-Feb-16 11:59S 23°57' W 046°19'0 0.0
2018-Feb-16 11:26S 23°57' W 046°19'0 0.0
2018-Feb-16 10:56S 23°57' W 046°19'0 0.0
2018-Feb-16 10:29S 23°57' W 046°19'0 0.0
2018-Feb-16 09:50S 23°57' W 046°19'0 0.0
2018-Feb-16 09:28S 23°57' W 046°19'1 1.6
2018-Feb-16 09:00S 23°58' W 046°18'2 3.3
2018-Feb-16 08:30S 23°59' W 046°18'4 7.3
2018-Feb-16 08:00S 24°02' W 046°20'915.6
2018-Feb-16 07:27S 24°06' W 046°12'  

Dump ship's entire track history